Time;durP1;ratioP1;P1;durP2;ratioP2;P2;SDS_P1;SDS_P2;PMS_P1;PMS_P2;Temp;Humidity;BMP_temperature;BMP_pressure;BME280_temperature;BME280_humidity;BME280_pressure;Samples;Min_cycle;Max_cycle;Signal;HPM_P1;HPM_P2
2022/08/06 00:00:16;;;;;;;;;;;;;;;22.97;37.14;102507.41;7277712;19;152793;-63
2022/08/06 00:02:53;;;;;;;;;;;;;;;22.98;36.70;102511.91;7279412;19;152863;-63
2022/08/06 00:05:20;;;;;;;;;;;;;;;22.95;36.72;102509.66;7278150;19;152939;-63
2022/08/06 00:07:57;;;;;;;;;;;;;;;22.87;37.27;102515.88;7280074;19;152568;-63
2022/08/06 00:10:28;;;;;;;;;;;;;;;22.95;36.87;102521.78;7283282;19;152462;-63
2022/08/06 00:12:57;;;;;;;;;;;;;;;22.94;37.02;102522.88;7277292;19;153472;-64
2022/08/06 00:15:29;;;;;;;;;;;;;;;22.92;37.07;102521.50;7280647;19;152550;-63
2022/08/06 00:18:17;;;;;;;;;;;;;;;22.89;36.91;102513.63;7280934;19;153948;-63
2022/08/06 00:20:46;;;;;;;;;;;;;;;22.87;36.92;102521.50;7278208;19;153493;-63
2022/08/06 00:23:16;;;;;;;;;;;;;;;22.89;37.20;102530.53;7277795;19;153491;-63
2022/08/06 00:25:45;;;;;;;;;;;;;;;22.89;37.08;102530.53;7280169;19;154020;-63
2022/08/06 00:28:21;;;;;;;;;;;;;;;22.94;37.20;102539.00;7276315;19;153402;-63
2022/08/06 00:30:56;;;;;;;;;;;;;;;22.91;36.82;102537.56;7279775;19;152183;-63
2022/08/06 00:33:30;;;;;;;;;;;;;;;22.89;36.90;102533.38;7287439;19;153652;-63
2022/08/06 00:36:18;;;;;;;;;;;;;;;22.86;36.98;102536.72;7280375;19;152148;-63
2022/08/06 00:38:53;;;;;;;;;;;;;;;22.85;36.97;102535.06;7278354;19;152323;-63
2022/08/06 00:41:26;;;;;;;;;;;;;;;22.89;37.13;102537.03;7287216;19;152793;-63
2022/08/06 00:44:08;;;;;;;;;;;;;;;22.80;37.03;102538.75;7283419;19;155492;-63
2022/08/06 00:46:38;;;;;;;;;;;;;;;22.79;37.10;102527.75;7285052;19;152889;-63
2022/08/06 00:49:07;;;;;;;;;;;;;;;22.77;37.30;102539.28;7281702;19;154248;-63
2022/08/06 00:51:38;;;;;;;;;;;;;;;22.73;37.02;102532.53;7283131;19;151887;-63
2022/08/06 00:54:17;;;;;;;;;;;;;;;22.79;36.89;102539.88;7284883;19;152638;-63
2022/08/06 00:57:09;;;;;;;;;;;;;;;22.76;36.84;102542.41;7291971;19;153662;-63
2022/08/06 00:59:42;;;;;;;;;;;;;;;22.71;37.21;102540.44;7285970;19;152911;-63
2022/08/06 01:02:11;;;;;;;;;;;;;;;22.74;37.12;102534.25;7283058;19;153178;-63
2022/08/06 01:04:44;;;;;;;;;;;;;;;22.79;37.21;102553.09;7284830;19;152388;-63
2022/08/06 01:07:11;;;;;;;;;;;;;;;22.78;37.19;102542.97;7287193;19;151952;-63
2022/08/06 01:09:58;;;;;;;;;;;;;;;22.69;37.37;102547.44;7284112;19;153083;-63
2022/08/06 01:12:39;;;;;;;;;;;;;;;22.70;37.00;102547.22;7284603;19;152393;-63
2022/08/06 01:15:19;;;;;;;;;;;;;;;22.69;37.12;102550.28;7285479;19;152027;-63
2022/08/06 01:18:18;;;;;;;;;;;;;;;22.75;37.20;102547.22;7284065;19;153661;-63
2022/08/06 01:21:07;;;;;;;;;;;;;;;22.75;37.42;102554.81;7289394;19;152146;-63
2022/08/06 01:24:12;;;;;;;;;;;;;;;22.66;37.18;102553.66;7283659;19;155325;-63
2022/08/06 01:26:46;;;;;;;;;;;;;;;22.61;37.19;102557.34;7285671;19;154017;-63
2022/08/06 01:29:19;;;;;;;;;;;;;;;22.60;37.62;102555.63;7285614;19;153710;-63
2022/08/06 01:31:46;;;;;;;;;;;;;;;22.67;37.58;102556.19;7283657;19;152750;-63
2022/08/06 01:34:30;;;;;;;;;;;;;;;22.61;37.62;102562.97;7283454;19;152185;-63
2022/08/06 01:37:17;;;;;;;;;;;;;;;22.54;37.34;102560.44;7285854;19;153601;-63
2022/08/06 01:39:46;;;;;;;;;;;;;;;22.54;37.52;102560.44;7283357;19;153330;-64
2022/08/06 01:42:29;;;;;;;;;;;;;;;22.53;37.67;102555.91;7292959;19;152083;-63
2022/08/06 01:45:03;;;;;;;;;;;;;;;22.52;37.65;102561.84;7282813;19;152441;-63
2022/08/06 01:47:31;;;;;;;;;;;;;;;22.56;37.58;102558.19;7285995;19;151919;-63
2022/08/06 01:50:21;;;;;;;;;;;;;;;22.58;37.49;102555.91;7280861;19;155115;-63
2022/08/06 01:52:55;;;;;;;;;;;;;;;22.50;37.65;102556.50;7281211;19;152461;-63
2022/08/06 01:55:27;;;;;;;;;;;;;;;22.56;37.34;102551.69;7284600;19;152408;-63
2022/08/06 01:58:21;;;;;;;;;;;;;;;22.49;37.40;102546.34;7283697;19;153796;-63
2022/08/06 02:00:56;;;;;;;;;;;;;;;22.56;37.34;102552.56;7283749;19;153382;-63
2022/08/06 02:03:35;;;;;;;;;;;;;;;22.54;37.46;102546.34;7280645;19;152201;-63
2022/08/06 02:06:21;;;;;;;;;;;;;;;22.51;37.81;102543.25;7292563;19;153575;-63
2022/08/06 02:09:00;;;;;;;;;;;;;;;22.45;37.45;102542.41;7282862;19;152182;-63
2022/08/06 02:11:50;;;;;;;;;;;;;;;22.45;37.64;102542.41;7282893;19;153921;-63
2022/08/06 02:14:32;;;;;;;;;;;;;;;22.36;37.82;102544.09;7283546;19;154248;-63
2022/08/06 02:17:02;;;;;;;;;;;;;;;22.45;37.78;102553.66;7283691;19;151894;-63
2022/08/06 02:19:43;;;;;;;;;;;;;;;22.43;37.61;102549.47;7281753;19;152658;-63
2022/08/06 02:22:25;;;;;;;;;;;;;;;22.40;37.98;102550.00;7284896;19;152379;-63
2022/08/06 02:24:57;;;;;;;;;;;;;;;22.39;37.90;102554.81;7284921;19;151929;-63
2022/08/06 02:27:32;;;;;;;;;;;;;;;22.34;37.95;102553.97;7285182;19;153260;-63
2022/08/06 02:30:18;;;;;;;;;;;;;;;22.32;37.96;102553.41;7290420;19;154727;-63
2022/08/06 02:32:54;;;;;;;;;;;;;;;22.30;38.01;102559.31;7283857;19;152654;-63
2022/08/06 02:35:21;;;;;;;;;;;;;;;22.31;37.85;102551.69;7280600;19;153562;-63
2022/08/06 02:37:57;;;;;;;;;;;;;;;22.25;38.11;102553.69;7285838;19;153218;-64
2022/08/06 02:40:34;;;;;;;;;;;;;;;22.31;37.64;102554.50;7284513;19;152683;-63
2022/08/06 02:43:12;;;;;;;;;;;;;;;22.22;37.71;102557.03;7284385;19;153230;-63
2022/08/06 02:45:55;;;;;;;;;;;;;;;22.27;38.20;102557.06;7282396;19;153093;-63
2022/08/06 02:48:30;;;;;;;;;;;;;;;22.21;38.06;102549.75;7284829;19;153824;-63
2022/08/06 02:51:01;;;;;;;;;;;;;;;22.22;38.25;102556.19;7281476;19;153009;-63
2022/08/06 02:53:56;;;;;;;;;;;;;;;22.31;37.60;102552.53;7291216;19;152687;-63
2022/08/06 02:56:31;;;;;;;;;;;;;;;22.27;37.75;102553.38;7284744;19;154336;-63
2022/08/06 02:59:08;;;;;;;;;;;;;;;22.32;38.03;102559.88;7282217;19;152072;-63
2022/08/06 03:01:39;;;;;;;;;;;;;;;22.14;37.85;102555.66;7280829;19;153390;-63
2022/08/06 03:04:10;;;;;;;;;;;;;;;22.16;38.18;102567.50;7277974;19;154008;-63
2022/08/06 03:06:38;;;;;;;;;;;;;;;22.16;38.22;102561.84;7281897;19;152081;-64
2022/08/06 03:09:13;;;;;;;;;;;;;;;22.21;37.98;102551.72;7283252;19;153983;-63
2022/08/06 03:11:45;;;;;;;;;;;;;;;22.12;38.21;102571.97;7281144;19;152765;-63
2022/08/06 03:14:16;;;;;;;;;;;;;;;22.22;38.06;102564.66;7283383;19;152446;-63
2022/08/06 03:17:03;;;;;;;;;;;;;;;22.14;38.24;102564.09;7290386;19;155427;-63
2022/08/06 03:19:31;;;;;;;;;;;;;;;22.13;38.16;102561.53;7280265;19;152286;-63
2022/08/06 03:22:19;;;;;;;;;;;;;;;22.10;38.04;102567.75;7282925;19;154977;-63
2022/08/06 03:25:06;;;;;;;;;;;;;;;22.06;38.50;102566.63;7281758;19;154753;-63
2022/08/06 03:27:35;;;;;;;;;;;;;;;22.08;37.98;102567.16;7283209;19;154005;-63
2022/08/06 03:30:08;;;;;;;;;;;;;;;22.07;38.40;102566.34;7283681;19;153579;-63
2022/08/06 03:32:37;;;;;;;;;;;;;;;22.10;38.02;102556.47;7277240;19;155395;-63
2022/08/06 03:35:19;;;;;;;;;;;;;;;22.05;38.04;102567.75;7280433;19;152774;-63
2022/08/06 03:38:10;;;;;;;;;;;;;;;22.07;38.42;102574.78;7283618;19;156893;-63
2022/08/06 03:40:39;;;;;;;;;;;;;;;22.02;38.35;102576.75;7288803;19;152200;-63
2022/08/06 03:43:06;;;;;;;;;;;;;;;21.99;38.20;102578.13;7283543;19;152754;-63
2022/08/06 03:45:46;;;;;;;;;;;;;;;22.05;38.04;102584.63;7282226;19;154195;-64
2022/08/06 03:48:24;;;;;;;;;;;;;;;22.12;38.03;102580.41;7283559;19;152078;-63
2022/08/06 03:51:05;;;;;;;;;;;;;;;22.00;38.33;102585.47;7283528;19;153995;-63
2022/08/06 03:53:36;;;;;;;;;;;;;;;22.04;38.27;102580.13;7276696;19;154053;-63
2022/08/06 03:56:06;;;;;;;;;;;;;;;21.94;38.61;102585.75;7283663;19;152820;-63
2022/08/06 03:58:40;;;;;;;;;;;;;;;22.02;38.12;102576.75;7282474;19;152117;-64
2022/08/06 04:01:10;;;;;;;;;;;;;;;22.00;38.57;102581.81;7286081;19;154752;-63
2022/08/06 04:03:38;;;;;;;;;;;;;;;22.03;38.34;102584.91;7277865;19;153297;-63
2022/08/06 04:06:09;;;;;;;;;;;;;;;22.00;38.33;102581.81;7279099;19;153449;-63
2022/08/06 04:08:46;;;;;;;;;;;;;;;21.99;38.39;102578.13;7281904;19;152426;-63
2022/08/06 04:11:15;;;;;;;;;;;;;;;21.89;38.78;102574.44;7283586;19;152594;-64
2022/08/06 04:14:04;;;;;;;;;;;;;;;21.88;38.78;102589.63;7280005;19;156526;-64
2022/08/06 04:16:34;;;;;;;;;;;;;;;21.97;38.63;102579.56;7289140;19;152458;-63
2022/08/06 04:19:05;;;;;;;;;;;;;;;21.88;38.81;102582.03;7285787;19;152546;-64
2022/08/06 04:21:35;;;;;;;;;;;;;;;21.95;38.52;102585.44;7288543;19;153538;-63
2022/08/06 04:24:21;;;;;;;;;;;;;;;21.87;38.52;102583.16;7295977;19;155184;-63
2022/08/06 04:26:56;;;;;;;;;;;;;;;21.89;38.68;102582.88;7287534;19;154312;-63
2022/08/06 04:29:23;;;;;;;;;;;;;;;21.99;38.44;102592.22;7288415;19;151984;-64
2022/08/06 04:32:12;;;;;;;;;;;;;;;21.91;38.80;102587.09;7287834;19;155679;-63
2022/08/06 04:34:46;;;;;;;;;;;;;;;21.81;38.81;102595.50;7283932;19;155070;-63
2022/08/06 04:37:34;;;;;;;;;;;;;;;21.85;38.81;102584.56;7286429;19;151942;-63
2022/08/06 04:40:06;;;;;;;;;;;;;;;21.80;38.87;102599.47;7287514;19;152669;-63
2022/08/06 04:42:41;;;;;;;;;;;;;;;21.89;38.65;102599.78;7286116;19;153632;-63
2022/08/06 04:45:09;;;;;;;;;;;;;;;21.84;39.00;102585.69;7286605;19;153263;-63
2022/08/06 04:47:57;;;;;;;;;;;;;;;21.79;38.76;102594.97;7293490;19;154791;-63
2022/08/06 04:50:25;;;;;;;;;;;;;;;21.78;39.03;102589.59;7285228;19;152426;-63
2022/08/06 04:53:03;;;;;;;;;;;;;;;21.72;39.27;102591.53;7286498;19;154427;-63
2022/08/06 04:55:30;;;;;;;;;;;;;;;21.71;39.41;102587.88;7282611;19;154539;-63
2022/08/06 04:58:01;;;;;;;;;;;;;;;21.72;39.39;102595.19;7286603;19;153943;-63
2022/08/06 05:00:44;;;;;;;;;;;;;;;21.72;39.25;102591.53;7288226;19;154151;-63
2022/08/06 05:03:31;;;;;;;;;;;;;;;21.74;39.37;102592.97;7280548;19;154613;-63
2022/08/06 05:06:22;;;;;;;;;;;;;;;21.74;39.42;102595.78;7286614;19;152247;-63
2022/08/06 05:08:51;;;;;;;;;;;;;;;21.76;39.83;102603.94;7286870;19;152589;-63
2022/08/06 05:11:30;;;;;;;;;;;;;;;21.79;39.46;102605.38;7293289;19;152190;-63
2022/08/06 05:14:01;;;;;;;;;;;;;;;21.79;39.45;102603.41;7284140;19;152911;-63
2022/08/06 05:16:34;;;;;;;;;;;;;;;21.78;39.71;102610.13;7285699;19;154142;-63
2022/08/06 05:19:03;;;;;;;;;;;;;;;21.80;39.93;102612.69;7284653;19;152059;-63
2022/08/06 05:21:49;;;;;;;;;;;;;;;21.81;39.65;102623.66;7286280;19;153087;-63
2022/08/06 05:24:36;;;;;;;;;;;;;;;21.85;39.45;102618.34;7280595;19;156150;-63
2022/08/06 05:27:23;;;;;;;;;;;;;;;21.77;39.76;102624.47;7285540;19;152539;-63
2022/08/06 05:30:05;;;;;;;;;;;;;;;21.71;39.74;102624.44;7282454;19;153961;-63
2022/08/06 05:32:43;;;;;;;;;;;;;;;21.82;39.52;102627.31;7285329;19;154214;-63
2022/08/06 05:35:11;;;;;;;;;;;;;;;21.83;39.24;102627.03;7291525;19;155475;-63
2022/08/06 05:37:43;;;;;;;;;;;;;;;21.98;38.99;102640.34;7284351;19;153632;-63
2022/08/06 05:40:33;;;;;;;;;;;;;;;21.91;39.29;102642.53;7283632;19;152416;-63
2022/08/06 05:43:20;;;;;;;;;;;;;;;21.76;39.77;102645.31;7285746;19;155637;-63
2022/08/06 05:45:48;;;;;;;;;;;;;;;21.77;39.28;102642.22;7284431;19;153451;-63
2022/08/06 05:48:17;;;;;;;;;;;;;;;21.76;39.39;102646.13;7285371;19;151751;-63
2022/08/06 05:51:01;;;;;;;;;;;;;;;21.72;39.68;102650.63;7284289;19;152645;-63
2022/08/06 05:53:38;;;;;;;;;;;;;;;21.68;39.59;102650.34;7282973;19;153231;-63
2022/08/06 05:56:27;;;;;;;;;;;;;;;21.71;39.89;102663.03;7287732;19;152279;-63
2022/08/06 05:59:09;;;;;;;;;;;;;;;21.66;39.89;102663.00;7290512;19;153991;-63
2022/08/06 06:01:55;;;;;;;;;;;;;;;21.68;40.03;102666.38;7283786;19;152257;-63
2022/08/06 06:04:23;;;;;;;;;;;;;;;21.69;39.69;102662.44;7282322;19;152940;-63
2022/08/06 06:06:59;;;;;;;;;;;;;;;21.64;39.97;102665.22;7285713;19;153785;-63
2022/08/06 06:09:30;;;;;;;;;;;;;;;21.67;39.90;102661.84;7285448;19;152533;-64
2022/08/06 06:12:17;;;;;;;;;;;;;;;21.69;40.14;102671.72;7286189;19;154432;-63
2022/08/06 06:14:57;;;;;;;;;;;;;;;21.73;39.87;102675.69;7284533;19;154094;-63
2022/08/06 06:17:24;;;;;;;;;;;;;;;21.71;39.69;102671.47;7287033;19;152618;-63
2022/08/06 06:20:03;;;;;;;;;;;;;;;21.62;40.15;102670.28;7287088;19;153562;-63
2022/08/06 06:22:38;;;;;;;;;;;;;;;21.69;39.87;102665.25;7287406;19;152598;-63
2022/08/06 06:25:09;;;;;;;;;;;;;;;21.66;40.08;102671.44;7285248;19;153314;-62
2022/08/06 06:27:36;;;;;;;;;;;;;;;21.65;40.09;102666.94;7283395;19;153963;-62
2022/08/06 06:30:16;;;;;;;;;;;;;;;21.63;40.27;102669.16;7285177;19;152536;-63
2022/08/06 06:33:15;;;;;;;;;;;;;;;21.62;40.42;102673.94;7284462;19;154979;-63
2022/08/06 06:36:04;;;;;;;;;;;;;;;21.58;40.48;102675.59;7280963;19;154446;-63
2022/08/06 06:38:43;;;;;;;;;;;;;;;21.58;40.12;102681.22;7284063;19;151890;-62
2022/08/06 06:41:29;;;;;;;;;;;;;;;21.55;40.40;102669.69;7287138;19;152452;-63
2022/08/06 06:44:03;;;;;;;;;;;;;;;21.62;40.46;102673.94;7290255;19;153207;-63
2022/08/06 06:46:29;;;;;;;;;;;;;;;21.55;40.52;102675.31;7285143;19;154150;-63
2022/08/06 06:49:13;;;;;;;;;;;;;;;21.58;40.51;102672.78;7282297;19;153397;-62
2022/08/06 06:52:05;;;;;;;;;;;;;;;21.59;40.60;102680.09;7285978;19;152039;-63
2022/08/06 06:54:46;;;;;;;;;;;;;;;21.63;40.33;102671.97;7281836;19;152883;-62
2022/08/06 06:57:32;;;;;;;;;;;;;;;21.56;40.64;102675.03;7285022;19;154336;-63
2022/08/06 07:00:09;;;;;;;;;;;;;;;21.58;40.33;102681.22;7283426;19;152444;-62
2022/08/06 07:02:58;;;;;;;;;;;;;;;21.64;40.34;102682.94;7281737;19;157355;-62
2022/08/06 07:05:26;;;;;;;;;;;;;;;21.53;41.06;102686.00;7277497;19;153454;-62
2022/08/06 07:08:14;;;;;;;;;;;;;;;21.53;41.00;102688.81;7292721;19;153153;-62
2022/08/06 07:10:57;;;;;;;;;;;;;;;21.51;41.09;102666.56;7282788;19;154128;-62
2022/08/06 07:13:27;;;;;;;;;;;;;;;21.60;40.67;102676.19;7283613;19;151920;-63
2022/08/06 07:16:17;;;;;;;;;;;;;;;21.62;40.57;102685.19;7284843;19;153778;-62
2022/08/06 07:19:02;;;;;;;;;;;;;;;21.60;40.85;102687.44;7280851;19;154166;-62
2022/08/06 07:21:30;;;;;;;;;;;;;;;21.56;41.05;102688.25;7283405;19;152163;-63
2022/08/06 07:23:57;;;;;;;;;;;;;;;21.69;40.57;102688.59;7283088;19;153137;-62
2022/08/06 07:26:46;;;;;;;;;;;;;;;21.58;41.17;102691.63;7282834;19;156325;-63
2022/08/06 07:29:18;;;;;;;;;;;;;;;21.64;40.65;102684.91;7282780;19;151798;-63
2022/08/06 07:32:07;;;;;;;;;;;;;;;21.68;40.60;102691.69;7290877;19;155465;-62
2022/08/06 07:34:54;;;;;;;;;;;;;;;21.59;40.77;102688.56;7278310;19;152953;-62
2022/08/06 07:37:24;;;;;;;;;;;;;;;21.64;41.13;102690.53;7283890;19;152839;-63
2022/08/06 07:39:52;;;;;;;;;;;;;;;21.66;40.87;102697.59;7281828;19;154456;-62
2022/08/06 07:42:24;;;;;;;;;;;;;;;21.68;40.66;102700.13;7284371;19;152531;-63
2022/08/06 07:44:57;;;;;;;;;;;;;;;21.58;41.08;102700.06;7281975;19;153461;-62
2022/08/06 07:47:28;;;;;;;;;;;;;;;21.70;41.02;102697.91;7282566;19;152094;-63
2022/08/06 07:50:15;;;;;;;;;;;;;;;21.67;40.63;102702.09;7281099;19;152155;-63
2022/08/06 07:52:43;;;;;;;;;;;;;;;21.64;41.15;102705.47;7284375;19;153343;-62
2022/08/06 07:55:12;;;;;;;;;;;;;;;21.64;41.12;102702.66;7289218;19;153690;-62
2022/08/06 07:57:41;;;;;;;;;;;;;;;21.66;41.13;102699.56;7284418;19;153095;-62
2022/08/06 08:00:24;;;;;;;;;;;;;;;21.63;40.78;102700.94;7282291;19;153440;-62
2022/08/06 08:06:22;;;;;;;;;;;;;;;21.63;41.00;102703.75;7280687;19;156888;-63
2022/08/06 08:08:58;;;;;;;;;;;;;;;21.69;41.00;102694.25;7281476;19;153291;-62
2022/08/06 08:11:26;;;;;;;;;;;;;;;21.58;41.27;102689.66;7283936;19;154169;-62
2022/08/06 08:14:15;;;;;;;;;;;;;;;21.64;40.77;102701.78;7280463;19;155185;-63
2022/08/06 08:16:44;;;;;;;;;;;;;;;21.67;40.59;102702.09;7281592;19;153327;-63
2022/08/06 08:19:31;;;;;;;;;;;;;;;21.60;41.07;102697.84;7287953;19;152142;-62
2022/08/06 08:22:13;;;;;;;;;;;;;;;21.66;40.69;102702.38;7281757;19;154003;-63
2022/08/06 08:24:42;;;;;;;;;;;;;;;21.64;40.96;102702.66;7281994;19;152891;-63
2022/08/06 08:27:21;;;;;;;;;;;;;;;21.59;41.10;102697.00;7282559;19;152893;-63
2022/08/06 08:29:52;;;;;;;;;;;;;;;21.54;40.66;102693.28;7280208;19;154425;-63
2022/08/06 08:32:22;;;;;;;;;;;;;;;21.55;40.96;102697.81;7282728;19;152774;-62
2022/08/06 08:34:50;;;;;;;;;;;;;;;21.58;40.71;102695.28;7277606;19;153694;-63
2022/08/06 08:37:18;;;;;;;;;;;;;;;21.58;40.57;102700.06;7280824;19;154053;-63
2022/08/06 08:39:46;;;;;;;;;;;;;;;21.60;40.73;102695.88;7288703;19;152176;-63
2022/08/06 08:42:28;;;;;;;;;;;;;;;21.61;40.55;102697.56;7279418;19;155009;-62
2022/08/06 08:44:59;;;;;;;;;;;;;;;21.55;41.05;102693.03;7278233;19;153150;-62
2022/08/06 08:47:28;;;;;;;;;;;;;;;21.62;40.95;102696.44;7279904;19;153396;-62
2022/08/06 08:50:17;;;;;;;;;;;;;;;21.55;40.82;102693.03;7275139;19;157193;-62
2022/08/06 08:52:47;;;;;;;;;;;;;;;21.54;40.98;102696.97;7283410;19;152125;-63
2022/08/06 08:55:21;;;;;;;;;;;;;;;21.55;41.06;102689.38;7278071;19;153497;-62
2022/08/06 08:58:08;;;;;;;;;;;;;;;21.54;40.75;102690.47;7281283;19;156114;-63
2022/08/06 09:00:55;;;;;;;;;;;;;;;21.59;40.48;102684.88;7284711;19;152362;-63
2022/08/06 09:03:23;;;;;;;;;;;;;;;21.65;40.05;102689.44;7293390;19;153339;-62
2022/08/06 09:05:50;;;;;;;;;;;;;;;21.67;40.11;102687.16;7286297;19;153064;-63
2022/08/06 09:08:19;;;;;;;;;;;;;;;21.65;40.04;102690.28;7287751;19;153408;-63
2022/08/06 09:11:06;;;;;;;;;;;;;;;21.66;39.94;102685.50;7286882;19;156647;-62
2022/08/06 09:13:52;;;;;;;;;;;;;;;21.69;39.92;102691.41;7287513;19;153227;-63
2022/08/06 09:16:25;;;;;;;;;;;;;;;21.69;39.41;102691.41;7288401;19;153447;-63
2022/08/06 09:18:58;;;;;;;;;;;;;;;21.70;39.41;102695.09;7283431;19;154252;-62
2022/08/06 09:21:27;;;;;;;;;;;;;;;21.71;39.67;102688.34;7286176;19;151824;-63
2022/08/06 09:23:56;;;;;;;;;;;;;;;21.73;39.59;102692.56;7286620;19;152245;-64
2022/08/06 09:26:24;;;;;;;;;;;;;;;21.75;39.61;102695.13;7294037;19;153180;-62
2022/08/06 09:29:21;;;;;;;;;;;;;;;21.77;39.74;102687.22;7286080;19;156336;-63
2022/08/06 09:31:57;;;;;;;;;;;;;;;21.74;39.46;102693.41;7285903;19;154578;-63
2022/08/06 09:34:39;;;;;;;;;;;;;;;21.76;39.53;102690.34;7282935;19;151904;-63
2022/08/06 09:37:07;;;;;;;;;;;;;;;21.78;39.61;102693.72;7287781;19;154750;-63
2022/08/06 09:39:36;;;;;;;;;;;;;;;21.82;39.35;102698.50;7285346;19;153592;-63
2022/08/06 09:42:40;;;;;;;;;;;;;;;21.82;39.07;102698.50;7286148;19;152084;-63
2022/08/06 09:45:14;;;;;;;;;;;;;;;21.84;39.29;102692.63;7284779;19;153127;-63
2022/08/06 09:47:44;;;;;;;;;;;;;;;21.84;39.34;102698.25;7284203;19;153328;-62
2022/08/06 09:50:40;;;;;;;;;;;;;;;21.83;39.57;102693.72;7288512;19;153066;-63
2022/08/06 09:53:09;;;;;;;;;;;;;;;21.85;39.78;102694.31;7283756;19;154242;-63
2022/08/06 09:55:40;;;;;;;;;;;;;;;21.88;39.66;102693.75;7283352;19;152890;-63
2022/08/06 09:58:07;;;;;;;;;;;;;;;21.92;39.36;102692.09;7285962;19;153525;-63
2022/08/06 10:00:36;;;;;;;;;;;;;;;21.95;39.48;102692.41;7284625;19;154468;-63
2022/08/06 10:03:07;;;;;;;;;;;;;;;21.99;39.64;102687.91;7284868;19;152002;-63
2022/08/06 10:06:05;;;;;;;;;;;;;;;22.03;40.06;102688.22;7283761;19;155887;-63
2022/08/06 10:08:36;;;;;;;;;;;;;;;22.06;39.63;102685.69;7283835;19;154412;-63
2022/08/06 10:11:03;;;;;;;;;;;;;;;22.10;39.79;102698.09;7286891;19;152376;-63
2022/08/06 10:13:33;;;;;;;;;;;;;;;22.14;39.95;102699.22;7292602;19;152744;-62
2022/08/06 10:16:19;;;;;;;;;;;;;;;22.16;40.10;102691.38;7285957;19;152307;-63
2022/08/06 10:18:48;;;;;;;;;;;;;;;22.20;40.07;102697.28;7283181;19;153072;-63
2022/08/06 10:21:29;;;;;;;;;;;;;;;22.24;40.15;102687.16;7285122;19;154040;-63
2022/08/06 10:24:14;;;;;;;;;;;;;;;22.28;40.08;102690.25;7282990;19;152556;-63
2022/08/06 10:27:03;;;;;;;;;;;;;;;22.31;39.80;102684.06;7286106;19;154976;-62
2022/08/06 10:29:32;;;;;;;;;;;;;;;22.32;39.63;102686.59;7283598;19;153496;-62
2022/08/06 10:32:02;;;;;;;;;;;;;;;22.36;39.83;102684.91;7285337;19;152573;-62
2022/08/06 10:34:37;;;;;;;;;;;;;;;22.37;39.61;102683.81;7281608;19;155013;-63
2022/08/06 10:37:07;;;;;;;;;;;;;;;22.41;39.65;102675.63;7290138;19;152231;-62
2022/08/06 10:40:00;;;;;;;;;;;;;;;22.43;39.64;102677.06;7282090;19;154416;-63
2022/08/06 10:42:35;;;;;;;;;;;;;;;22.44;39.90;102675.91;7284777;19;156048;-62
2022/08/06 10:45:07;;;;;;;;;;;;;;;22.45;39.95;102671.97;7284349;19;151802;-62
2022/08/06 10:47:43;;;;;;;;;;;;;;;22.49;39.64;102683.53;7285383;19;153502;-62
2022/08/06 10:50:31;;;;;;;;;;;;;;;22.50;39.66;102680.44;7280655;19;152733;-62
2022/08/06 10:53:16;;;;;;;;;;;;;;;22.56;39.43;102676.50;7284429;19;151946;-63
2022/08/06 10:56:03;;;;;;;;;;;;;;;22.57;39.36;102674.53;7281580;19;155864;-63
2022/08/06 10:58:34;;;;;;;;;;;;;;;22.58;39.22;102670.56;7288380;19;153624;-63
2022/08/06 11:01:05;;;;;;;;;;;;;;;22.59;39.50;102670.31;7285068;19;152670;-63
2022/08/06 11:03:34;;;;;;;;;;;;;;;22.62;39.58;102669.72;7279252;19;153758;-62
2022/08/06 11:06:12;;;;;;;;;;;;;;;22.64;39.41;102669.47;7283920;19;152571;-63
2022/08/06 11:08:54;;;;;;;;;;;;;;;22.67;39.21;102668.88;7284333;19;153750;-63
2022/08/06 11:11:37;;;;;;;;;;;;;;;22.69;39.32;102666.66;7278940;19;152744;-63
2022/08/06 11:14:09;;;;;;;;;;;;;;;22.70;39.22;102662.75;7283013;19;151993;-63
2022/08/06 11:16:54;;;;;;;;;;;;;;;22.73;39.42;102661.31;7281423;19;153252;-63
2022/08/06 11:19:36;;;;;;;;;;;;;;;22.74;39.34;102649.78;7279915;19;153689;-62
2022/08/06 11:22:36;;;;;;;;;;;;;;;22.76;39.34;102653.13;7291401;19;152323;-63
2022/08/06 11:25:06;;;;;;;;;;;;;;;22.77;38.88;102645.53;7281581;19;154125;-63
2022/08/06 11:27:56;;;;;;;;;;;;;;;22.81;39.16;102657.94;7281002;19;152801;-63
2022/08/06 11:30:42;;;;;;;;;;;;;;;22.81;39.26;102650.31;7280638;19;152710;-63
2022/08/06 11:33:17;;;;;;;;;;;;;;;22.82;39.47;102649.19;7282020;19;154023;-63
2022/08/06 11:35:48;;;;;;;;;;;;;;;22.82;39.06;102654.84;7278830;19;152354;-63
2022/08/06 11:38:38;;;;;;;;;;;;;;;22.84;39.19;102646.97;7282702;19;152187;-63
2022/08/06 11:41:30;;;;;;;;;;;;;;;22.88;39.18;102650.06;7281488;19;154057;-63
2022/08/06 11:44:20;;;;;;;;;;;;;;;22.93;39.32;102650.06;7280315;19;153784;-63
2022/08/06 11:47:06;;;;;;;;;;;;;;;22.91;39.34;102641.03;7287423;19;154296;-63
2022/08/06 11:49:38;;;;;;;;;;;;;;;22.94;39.30;102649.75;7277514;19;153185;-63
2022/08/06 11:52:30;;;;;;;;;;;;;;;22.96;39.07;102633.41;7281431;19;153309;-63
2022/08/06 11:55:06;;;;;;;;;;;;;;;22.97;38.93;102629.47;7277198;19;154945;-63
2022/08/06 11:57:34;;;;;;;;;;;;;;;22.99;39.11;102632.81;7281524;19;151856;-63
2022/08/06 12:00:21;;;;;;;;;;;;;;;22.99;38.82;102638.47;7279907;19;153035;-62
2022/08/06 12:02:50;;;;;;;;;;;;;;;23.02;38.98;102637.91;7279203;19;153560;-63
2022/08/06 12:05:20;;;;;;;;;;;;;;;23.04;39.24;102634.78;7279381;19;152111;-62
2022/08/06 12:08:07;;;;;;;;;;;;;;;23.04;38.85;102631.97;7281537;19;153359;-63
2022/08/06 12:11:00;;;;;;;;;;;;;;;23.02;38.82;102622.97;7287119;19;152122;-63
2022/08/06 12:13:39;;;;;;;;;;;;;;;23.03;38.75;102630.31;7283124;19;154512;-62
2022/08/06 12:16:25;;;;;;;;;;;;;;;23.04;38.77;102629.16;7277970;19;154102;-63
2022/08/06 12:18:54;;;;;;;;;;;;;;;23.07;39.23;102622.13;7277185;19;153534;-62
2022/08/06 12:21:29;;;;;;;;;;;;;;;23.08;38.86;102621.81;7284481;19;153670;-63
2022/08/06 12:24:09;;;;;;;;;;;;;;;23.10;38.63;102622.38;7282143;19;153582;-63
2022/08/06 12:26:37;;;;;;;;;;;;;;;23.09;38.51;102615.06;7279991;19;153276;-63
2022/08/06 12:29:04;;;;;;;;;;;;;;;23.10;38.85;102616.75;7282585;19;153840;-63
2022/08/06 12:31:33;;;;;;;;;;;;;;;23.15;38.82;102613.91;7282057;19;153980;-63
2022/08/06 12:34:28;;;;;;;;;;;;;;;23.14;38.67;102619.84;7287267;19;152779;-63
2022/08/06 12:36:58;;;;;;;;;;;;;;;23.12;38.51;102611.69;7287629;19;154077;-63
2022/08/06 12:40:23;;;;;;;;;;;;;;;23.14;38.36;102614.19;7289001;19;152586;-62
2022/08/06 12:42:26;;;;;;;;;;;;;;;23.15;38.10;102616.75;7289173;19;153728;-63
2022/08/06 12:45:19;;;;;;;;;;;;;;;23.16;38.06;102614.78;7284509;19;155385;-64
2022/08/06 12:48:07;;;;;;;;;;;;;;;23.16;38.04;102609.97;7289869;19;153201;-63
2022/08/06 12:50:41;;;;;;;;;;;;;;;23.16;38.08;102612.78;7285613;19;153777;-63
2022/08/06 12:53:10;;;;;;;;;;;;;;;23.16;38.21;102609.97;7287607;19;153897;-63
2022/08/06 12:55:51;;;;;;;;;;;;;;;23.17;38.12;102617.28;7293666;19;153045;-63
2022/08/06 12:58:25;;;;;;;;;;;;;;;23.16;38.27;102597.84;7287589;19;154272;-63
2022/08/06 13:01:10;;;;;;;;;;;;;;;23.18;37.97;102595.56;7287276;19;152299;-63
2022/08/06 13:03:43;;;;;;;;;;;;;;;23.19;38.25;102600.94;7282390;19;153636;-63
2022/08/06 13:06:16;;;;;;;;;;;;;;;23.19;38.03;102597.25;7286420;19;152917;-63
2022/08/06 13:09:00;;;;;;;;;;;;;;;23.17;38.30;102597.53;7286947;19;152601;-62
2022/08/06 13:11:36;;;;;;;;;;;;;;;23.18;38.44;102596.41;7287890;19;153287;-62
2022/08/06 13:14:09;;;;;;;;;;;;;;;23.22;38.18;102585.41;7286852;19;154557;-63
2022/08/06 13:16:44;;;;;;;;;;;;;;;23.22;38.15;102588.22;7285601;19;152487;-63
2022/08/06 13:19:21;;;;;;;;;;;;;;;23.19;38.03;102572.72;7291078;19;152878;-62
2022/08/06 13:22:00;;;;;;;;;;;;;;;23.22;37.95;102580.59;7286528;19;152163;-63